createdAt,value
2018-12-11T00:00:21.206Z,66.77
2018-12-11T00:05:26.488Z,66.78
2018-12-11T00:10:29.829Z,66.48
2018-12-11T00:15:33.377Z,66.80
2018-12-11T00:20:37.796Z,67.54
2018-12-11T00:25:41.001Z,68.21
2018-12-11T00:30:44.149Z,67.42
2018-12-11T00:35:47.447Z,67.04
2018-12-11T00:40:50.748Z,66.86
2018-12-11T00:45:53.994Z,67.08
2018-12-11T00:50:57.183Z,67.12
2018-12-11T00:56:00.584Z,67.22
2018-12-11T01:01:03.866Z,66.61
2018-12-11T01:06:07.108Z,66.71
2018-12-11T01:11:10.492Z,66.82
2018-12-11T01:16:13.785Z,67.22
2018-12-11T01:21:17.049Z,66.59
2018-12-11T01:26:20.470Z,66.32
2018-12-11T01:31:24.536Z,66.61
2018-12-11T01:36:27.909Z,66.79
2018-12-11T01:41:31.091Z,66.23
2018-12-11T01:46:34.537Z,66.12
2018-12-11T01:51:37.838Z,66.39
2018-12-11T01:56:41.023Z,66.53
2018-12-11T02:01:45.383Z,66.86
2018-12-11T02:06:48.675Z,66.31
2018-12-11T02:11:51.804Z,66.72
2018-12-11T02:16:55.001Z,67.41
2018-12-11T02:21:58.225Z,67.15
2018-12-11T02:27:01.526Z,67.09
2018-12-11T02:32:05.298Z,66.30
2018-12-11T02:37:08.556Z,66.54
2018-12-11T02:42:11.959Z,65.95
2018-12-11T02:47:16.351Z,65.56
2018-12-11T02:52:19.652Z,65.19
2018-12-11T02:57:22.908Z,65.81
2018-12-11T03:02:26.184Z,65.51
2018-12-11T03:07:29.671Z,64.94
2018-12-11T03:12:32.977Z,64.69
2018-12-11T03:17:36.420Z,64.94
2018-12-11T03:22:40.008Z,64.76
2018-12-11T03:27:43.315Z,64.19
2018-12-11T03:32:46.574Z,63.91
2018-12-11T03:37:49.809Z,63.88
2018-12-11T03:42:53.027Z,63.86
2018-12-11T03:47:56.430Z,63.66
2018-12-11T03:52:59.774Z,63.63
2018-12-11T03:58:03.145Z,64.22
2018-12-11T04:03:06.419Z,64.30
2018-12-11T04:08:09.858Z,64.08
2018-12-11T04:13:12.985Z,64.76
2018-12-11T04:18:16.437Z,64.39
2018-12-11T04:23:19.697Z,64.21
2018-12-11T04:28:22.952Z,64.85
2018-12-11T04:33:26.351Z,64.42
2018-12-11T04:38:29.617Z,64.83
2018-12-11T04:43:33.020Z,64.42
2018-12-11T04:48:36.446Z,63.72
2018-12-11T04:53:39.619Z,64.45
2018-12-11T04:58:45.051Z,64.06
2018-12-11T05:03:48.360Z,64.29
2018-12-11T05:08:52.853Z,63.43
2018-12-11T05:13:56.202Z,63.62
2018-12-11T05:18:59.795Z,63.52
2018-12-11T05:24:03.093Z,62.99
2018-12-11T05:29:06.364Z,62.63
2018-12-11T05:34:09.584Z,61.54
2018-12-11T05:39:12.924Z,61.85
2018-12-11T05:44:16.116Z,61.34
2018-12-11T05:49:19.440Z,61.99
2018-12-11T05:54:22.688Z,61.12
2018-12-11T05:59:27.694Z,60.51
2018-12-11T06:04:30.976Z,60.27
2018-12-11T06:09:34.199Z,60.45
2018-12-11T06:14:37.476Z,60.66
2018-12-11T06:19:40.878Z,60.71
2018-12-11T06:24:44.119Z,60.38
2018-12-11T06:29:47.496Z,60.52
2018-12-11T06:34:50.734Z,59.75
2018-12-11T06:39:53.987Z,59.85
2018-12-11T06:44:57.357Z,59.56
2018-12-11T06:50:00.704Z,59.62
2018-12-11T06:55:04.315Z,59.90
2018-12-11T07:00:08.162Z,59.94
2018-12-11T07:05:11.364Z,59.65
2018-12-11T07:10:14.730Z,59.99
2018-12-11T07:15:18.941Z,59.69
2018-12-11T07:20:22.336Z,59.29
2018-12-11T07:25:25.640Z,58.68
2018-12-11T07:30:28.966Z,59.42
2018-12-11T07:35:32.465Z,59.16
2018-12-11T07:40:35.746Z,58.57
2018-12-11T07:45:39.110Z,58.63
2018-12-11T07:50:42.669Z,58.70
2018-12-11T07:55:45.934Z,58.66
2018-12-11T08:00:49.255Z,58.38
2018-12-11T08:05:52.645Z,58.65
2018-12-11T08:10:55.870Z,58.27
2018-12-11T08:15:59.166Z,58.26
2018-12-11T08:21:02.488Z,58.42
2018-12-11T08:26:06.037Z,58.73
2018-12-11T08:31:09.310Z,58.29
2018-12-11T08:36:12.556Z,58.73
2018-12-11T08:41:15.788Z,59.12
2018-12-11T08:46:19.264Z,59.15
2018-12-11T08:51:22.607Z,58.75
2018-12-11T08:56:26.133Z,58.69
2018-12-11T09:01:29.480Z,58.39
2018-12-11T09:06:32.863Z,58.65
2018-12-11T09:11:36.253Z,58.42
2018-12-11T09:16:39.542Z,58.16
2018-12-11T09:21:43.961Z,57.78
2018-12-11T09:26:47.293Z,57.21
2018-12-11T09:31:51.821Z,58.00
2018-12-11T09:36:55.204Z,57.38
2018-12-11T09:41:58.405Z,56.92
2018-12-11T09:47:01.627Z,57.41
2018-12-11T09:52:05.064Z,58.18
2018-12-11T09:57:08.328Z,57.56
2018-12-11T10:02:11.607Z,56.18
2018-12-11T10:07:14.906Z,56.53
2018-12-11T10:12:18.230Z,57.04
2018-12-11T10:17:21.406Z,57.31
2018-12-11T10:22:25.208Z,57.77
2018-12-11T10:27:28.482Z,57.29
2018-12-11T10:32:31.912Z,57.41
2018-12-11T10:37:35.285Z,57.83
2018-12-11T10:42:38.505Z,58.26
2018-12-11T10:47:41.767Z,58.35
2018-12-11T10:52:46.168Z,58.22
2018-12-11T10:57:49.459Z,57.79
2018-12-11T11:02:58.169Z,57.14
2018-12-11T11:08:01.574Z,57.12
2018-12-11T11:13:04.940Z,56.82
2018-12-11T11:18:08.308Z,56.91
2018-12-11T11:23:12.127Z,57.45
2018-12-11T11:28:15.548Z,56.50
2018-12-11T11:33:18.839Z,56.67
2018-12-11T11:38:22.099Z,56.26
2018-12-11T11:43:26.134Z,56.43
2018-12-11T11:48:29.459Z,56.55
2018-12-11T11:53:32.874Z,57.07
2018-12-11T11:58:36.137Z,57.14
2018-12-11T12:03:39.442Z,57.25
2018-12-11T12:08:42.724Z,56.82
2018-12-11T12:13:46.141Z,57.25
2018-12-11T12:18:49.316Z,57.79
2018-12-11T12:23:52.752Z,57.35
2018-12-11T12:28:56.132Z,56.90
2018-12-11T12:33:59.363Z,56.67
2018-12-11T12:39:04.384Z,56.84
2018-12-11T12:44:09.845Z,56.73
2018-12-11T12:49:13.049Z,56.34
2018-12-11T12:54:16.526Z,56.66
2018-12-11T12:59:19.871Z,55.88
2018-12-11T13:04:23.139Z,55.54
2018-12-11T13:09:26.442Z,55.22
2018-12-11T13:14:29.675Z,54.97
2018-12-11T13:19:32.975Z,54.79
2018-12-11T13:24:36.851Z,54.94
2018-12-11T13:29:40.138Z,55.20
2018-12-11T13:34:43.323Z,54.83
2018-12-11T13:39:46.707Z,54.59
2018-12-11T13:44:50.291Z,54.79
2018-12-11T13:49:53.567Z,54.65
2018-12-11T13:54:56.925Z,54.38
2018-12-11T14:00:00.234Z,54.88
2018-12-11T14:05:03.658Z,54.31
2018-12-11T14:10:07.342Z,55.23
2018-12-11T14:15:10.907Z,54.75
2018-12-11T14:20:14.256Z,55.95
2018-12-11T14:25:17.844Z,56.13
2018-12-11T14:30:21.561Z,56.18
2018-12-11T14:35:24.868Z,55.89
2018-12-11T14:40:28.175Z,55.97
2018-12-11T14:45:31.448Z,55.37
2018-12-11T14:50:35.128Z,55.23
2018-12-11T14:55:39.317Z,55.56
2018-12-11T15:00:44.018Z,55.24
2018-12-11T15:05:47.354Z,55.71
2018-12-11T15:10:50.755Z,55.79
2018-12-11T15:15:54.161Z,56.40
2018-12-11T15:20:57.400Z,56.59
2018-12-11T15:26:00.817Z,56.13
2018-12-11T15:31:11.047Z,55.78
2018-12-11T15:36:14.368Z,56.12
2018-12-11T15:41:17.687Z,55.98
2018-12-11T15:46:21.593Z,55.85
2018-12-11T15:51:24.986Z,56.11
2018-12-11T15:56:28.477Z,56.22
2018-12-11T16:01:31.760Z,56.13
2018-12-11T16:06:35.057Z,56.90
2018-12-11T16:11:39.428Z,57.17
2018-12-11T16:16:43.170Z,57.79
2018-12-11T16:21:46.438Z,57.34
2018-12-11T16:26:50.736Z,57.41
2018-12-11T16:31:54.147Z,57.41
2018-12-11T16:36:57.606Z,57.22
2018-12-11T16:42:01.173Z,57.35
2018-12-11T16:47:05.334Z,58.04
2018-12-11T16:52:08.562Z,58.21
2018-12-11T16:57:11.917Z,58.84
2018-12-11T17:02:15.217Z,58.44
2018-12-11T17:07:18.777Z,59.14
2018-12-11T17:12:23.210Z,58.30
2018-12-11T17:17:26.784Z,58.63
2018-12-11T17:22:30.091Z,58.69
2018-12-11T17:27:33.516Z,58.74
2018-12-11T17:32:36.882Z,58.58
2018-12-11T17:37:40.281Z,58.47
2018-12-11T17:42:43.686Z,57.49
2018-12-11T17:47:46.968Z,58.32
2018-12-11T17:52:50.418Z,57.79
2018-12-11T17:57:53.853Z,57.41
2018-12-11T18:02:57.618Z,58.16
2018-12-11T18:08:00.844Z,58.59
2018-12-11T18:13:04.359Z,58.60
2018-12-11T18:18:07.857Z,58.59
2018-12-11T18:23:11.164Z,58.70
2018-12-11T18:28:14.583Z,57.97
2018-12-11T18:33:17.919Z,58.53
2018-12-11T18:38:21.471Z,58.31
2018-12-11T18:43:24.858Z,58.38
2018-12-11T18:48:28.086Z,58.30
2018-12-11T18:53:31.472Z,58.13
2018-12-11T18:58:34.988Z,58.48
2018-12-11T19:03:38.282Z,58.26
2018-12-11T19:08:41.823Z,58.86
2018-12-11T19:13:45.459Z,58.74
2018-12-11T19:18:48.938Z,58.04
2018-12-11T19:23:59.105Z,58.51
2018-12-11T19:29:02.681Z,58.23
2018-12-11T19:34:08.166Z,58.22
2018-12-11T19:39:13.352Z,58.31
2018-12-11T19:44:17.325Z,58.00
2018-12-11T19:49:20.655Z,58.10
2018-12-11T19:54:23.962Z,57.77
2018-12-11T19:59:28.109Z,57.20
2018-12-11T20:04:31.348Z,56.68
2018-12-11T20:09:36.946Z,56.61
2018-12-11T20:14:40.382Z,56.58
2018-12-11T20:19:43.691Z,56.79
2018-12-11T20:24:46.988Z,56.69
2018-12-11T20:29:50.572Z,56.71
2018-12-11T20:34:54.004Z,56.46
2018-12-11T20:39:57.572Z,56.77
2018-12-11T20:45:00.924Z,56.28
2018-12-11T20:50:05.065Z,56.16
2018-12-11T20:55:08.360Z,56.38
2018-12-11T21:00:11.822Z,56.58
2018-12-11T21:05:15.473Z,56.08
2018-12-11T21:10:18.795Z,56.15
2018-12-11T21:15:22.195Z,56.47
2018-12-11T21:20:25.635Z,56.23
2018-12-11T21:25:28.941Z,56.25
2018-12-11T21:30:32.235Z,56.53
2018-12-11T21:35:35.631Z,56.94
2018-12-11T21:40:39.038Z,57.10
2018-12-11T21:45:42.411Z,56.98
2018-12-11T21:50:45.839Z,57.80
2018-12-11T21:55:49.105Z,57.79
2018-12-11T22:00:52.824Z,57.64
2018-12-11T22:05:56.289Z,57.30
2018-12-11T22:10:59.631Z,57.90
2018-12-11T22:16:02.833Z,57.38
2018-12-11T22:21:06.159Z,57.13
2018-12-11T22:26:10.532Z,57.42
2018-12-11T22:31:14.123Z,57.65
2018-12-11T22:36:17.399Z,57.74
2018-12-11T22:41:20.617Z,57.89
2018-12-11T22:46:24.188Z,57.10
2018-12-11T22:51:28.123Z,57.43
2018-12-11T22:56:31.410Z,56.67
2018-12-11T23:01:35.710Z,56.61
2018-12-11T23:06:39.359Z,56.87
2018-12-11T23:11:42.516Z,57.08
2018-12-11T23:16:45.828Z,57.10
2018-12-11T23:21:49.163Z,57.00
2018-12-11T23:26:52.518Z,56.34
2018-12-11T23:31:55.772Z,56.49
2018-12-11T23:36:59.065Z,57.01
2018-12-11T23:42:02.411Z,57.13
2018-12-11T23:47:05.706Z,57.45
2018-12-11T23:52:09.459Z,56.58
2018-12-11T23:57:12.871Z,56.95
